Terminal Aerodrome Forecast
Issued by NWS

Home | Current Version | Previous Version | Text Only | Print | Product List | Glossary On
Versions: 1 2 3 4 5 6 7 8 9 10 11 12 13 14 15 16 17 18 19
000
FTUS43 KDVN 310936 AAA
TAFBRL
TAF AMD
KBRL 310936Z 3110/0106 21004KT P6SM SCT120
     FM311400 17008KT P6SM BKN120
     FM312200 19010KT P6SM VCSH BKN040=

USA.gov is the U.S. government's official web portal to all federal, state and local government web resources and services.